Terminal Aerodrome Forecast
Issued by NWS

Current Version | Previous Version | Text Only | Print | Product List | Glossary On
Versions: 1 2 3 4 5 6 7 8 9 10 11 12 13 14 15 16
000
FTAK31 PAFA 241738
TAFAFA
TAF
PAFA 241738Z 2418/2524 VRB03KT P6SM VCSH SCT025 SCT050 OVC100
     FM242100 VRB04KT 6SM -SN BR SCT025 BKN035 OVC050
     FM250000 VRB04KT 4SM -SN BR BKN025 OVC035
     FM250900 VRB04KT 6SM -SN BR BKN025 OVC035
     FM251200 VRB04KT P6SM VCSH SCT015 BKN025 OVC035=

USA.gov is the U.S. government's official web portal to all federal, state and local government web resources and services.